Details From OIBB - Bushehr
To OBBI - Bahrain Intl
Flight Number -
Tags Generated
Created
Modified
Stats Distance 162 nm / 300 km
Max Altitude 0 ft / 0 m
Waypoints 2
Social Downloads 2
Likes 0
Share VATSIM

Download

Looking for another format? Having issues loading an existing format? Contact us
Advertisement - Login to hide

Notes

Generated

Route

OIBB OBBI

ID Type Via Altitude Latitude Longitude Leg Dist Tot Dist Heading (true) Name
O OIBB APT - 0 ft / 0 m 28.95914˚ 50.81841˚ - 0 nm - -
O OBBI APT - 0 ft / 0 m 26.27100˚ 50.62993˚ 161 nm 161 nm 184° / 184° -

Altitude Profile

Advertisement - Login to hide

OIBB

Details ICAO OIBB (BUZ)
Name BUSHEHR
Region Iran
Timezone Asia/Tehran (UTC+3.5)
Stats Elevation 68 ft / 21 m (AMSL)
Location 28.944853° 50.834626°
Runways 2
Magnetic Variation 3.223° E

METAR

OIBB 141500Z 14006KT CAVOK 19/13 Q1015 A2999

Decode

TAF

Not found

Departure Runways

ID Width Length Bearing (true) Bearing (mag) Surface Threshold Offset Overrun Length
13L 148 ft / 45 m 14,673 ft / 4,472 m 132.11° 128.89° Asphalt 0 ft / 0 m 970 ft / 296 m
13R 148 ft / 45 m 14,673 ft / 4,473 m 132.12° 128.90° Asphalt 0 ft / 0 m 984 ft / 300 m
31L 148 ft / 45 m 14,673 ft / 4,473 m 312.13° 308.91° Asphalt 0 ft / 0 m 987 ft / 301 m
31R 148 ft / 45 m 14,673 ft / 4,472 m 312.13° 308.91° Asphalt 0 ft / 0 m 982 ft / 299 m

OBBI

Details ICAO OBBI (BAH)
Name BAHRAIN INTL
Region Bahrain
Timezone Asia/Bahrain (UTC+3.0)
Stats Elevation 6 ft / 2 m (AMSL)
Location 26.267837° 50.637095°
Runways 2
Magnetic Variation 2.762° E

METAR

OBBI 141500Z 10006KT CAVOK 19/14 Q1016 NOSIG

Decode

TAF

TAF OBBI 141100Z 1412/1518 VRB05KT 9999 FEW030 BECMG 1414/1416 18012KT

Decode

Destination Runways

ID Width Length Bearing (true) Bearing (mag) Surface Threshold Offset Overrun Length
12L 197 ft / 60 m 12,893 ft / 3,930 m 122.74° 119.98° Asphalt 1,000 ft / 305 m 0 ft / 0 m
12R 148 ft / 45 m 8,303 ft / 2,531 m 122.76° 120.00° Asphalt 1,000 ft / 305 m 0 ft / 0 m
30L 148 ft / 45 m 8,303 ft / 2,531 m 302.77° 300.01° Asphalt 395 ft / 120 m 0 ft / 0 m
30R 197 ft / 60 m 12,893 ft / 3,930 m 302.75° 299.99° Asphalt 1,000 ft / 305 m 0 ft / 0 m

Approach Navaids

Runway Type Ident Frequency Range Bearing (true) Bearing (mag) Slope Elevation
12L Localiser IBIB 111.50 MHz 18 nm / 33 km 122.74° 119.98° - 6 ft / 2 m (AMSL)
12L Glidescope IBIB 111.50 MHz 10 nm / 19 km 122.75° 119.98° 3.00° 6 ft / 2 m (AMSL)
12L DME IBIB 111.50 MHz 18 nm / 33 km - - - 42 ft / 13 m (AMSL)
30R Localiser IBIA 110.30 MHz 18 nm / 33 km 302.77° 300.01° - 6 ft / 2 m (AMSL)
30R Glidescope IBIA 110.30 MHz 10 nm / 19 km 302.75° 299.98° 3.00° 6 ft / 2 m (AMSL)
30R DME IBIA 110.30 MHz 18 nm / 33 km - - - 42 ft / 13 m (AMSL)